Blevins, Texas
Current Conditions -  °F | °C
As of 9:15 PM on Friday 19 Dec 2014 (Local Time) from KTPL Reporting Station
Overcast Overcast  
Wind Chill: 44°   Ceiling: 1900
Heat Index: 48°   Visibility: 10mi
Dew Point: 43°   Wind: 10mph
Humidity: 82%   Direction: 320°NW
Pressure: 30.17"   Gusts: NA
Location:  31.265°N, 97.2164°W
Report Text: KTPL 200315Z AUTO 32009KT 10SM OVC019 09/06 A3017 RMK AO1
Loading
Personal Weather Stations






























Interactive Weather Map New forecast layout! Learn more

10-Day Weather Forecast

Advertisements
Track Severe Weather on mobile